Time;durP1;ratioP1;P1;durP2;ratioP2;P2;SDS_P1;SDS_P2;PMS_P1;PMS_P2;Temp;Humidity;BMP_temperature;BMP_pressure;BME280_temperature;BME280_humidity;BME280_pressure;Samples;Min_cycle;Max_cycle;Signal;HPM_P1;HPM_P2
2022/11/28 00:01:46;;;;;;;24.10;13.27;;;3.90;99.90;;;;;;5227714;28;20438;-50
2022/11/28 00:04:17;;;;;;;27.50;14.60;;;3.80;99.90;;;;;;5229239;28;20183;-49
2022/11/28 00:06:50;;;;;;;21.53;13.30;;;3.80;99.90;;;;;;5217666;28;20464;-48
2022/11/28 00:09:21;;;;;;;24.60;13.57;;;3.80;99.90;;;;;;5227675;28;20203;-50
2022/11/28 00:11:51;;;;;;;27.13;13.90;;;3.70;99.90;;;;;;5211348;28;20982;-49
2022/11/28 00:14:22;;;;;;;33.63;15.83;;;3.70;99.90;;;;;;5246069;28;20541;-48
2022/11/28 00:16:53;;;;;;;31.60;14.77;;;3.70;99.90;;;;;;5221193;28;20179;-49
2022/11/28 00:19:23;;;;;;;29.47;14.30;;;3.70;99.90;;;;;;5219503;28;20206;-50
2022/11/28 00:21:54;;;;;;;24.83;13.47;;;3.70;99.90;;;;;;5217544;28;20272;-48
2022/11/28 00:24:25;;;;;;;29.50;15.23;;;3.70;99.90;;;;;;5230734;28;20198;-50
2022/11/28 00:26:55;;;;;;;34.33;14.70;;;3.70;99.90;;;;;;5232253;28;20206;-49
2022/11/28 00:29:26;;;;;;;37.13;16.53;;;3.70;99.90;;;;;;5228740;28;20467;-48
2022/11/28 00:31:57;;;;;;;34.77;15.90;;;3.70;99.90;;;;;;5227907;28;20182;-51
2022/11/28 00:34:27;;;;;;;26.07;15.23;;;3.70;99.90;;;;;;5234615;28;20184;-51
2022/11/28 00:36:58;;;;;;;38.83;15.83;;;3.70;99.90;;;;;;5235956;28;20190;-50
2022/11/28 00:39:28;;;;;;;32.37;16.37;;;3.60;99.90;;;;;;5237421;28;20282;-48
2022/11/28 00:41:59;;;;;;;35.07;16.17;;;3.60;99.90;;;;;;5226449;28;20281;-49
2022/11/28 00:44:30;;;;;;;30.80;15.90;;;3.60;99.90;;;;;;5227625;28;20263;-49
2022/11/28 00:47:00;;;;;;;31.70;17.33;;;3.60;99.90;;;;;;5223768;28;20206;-49
2022/11/28 00:49:31;;;;;;;24.63;14.90;;;3.70;99.90;;;;;;5229108;28;20199;-49
2022/11/28 00:52:01;;;;;;;25.73;17.10;;;3.60;99.90;;;;;;5227167;28;20182;-50
2022/11/28 00:54:32;;;;;;;24.83;16.07;;;3.50;99.90;;;;;;5244967;28;20178;-49
2022/11/28 00:57:03;;;;;;;23.07;15.63;;;3.60;99.90;;;;;;5230140;28;20643;-49
2022/11/28 00:59:33;;;;;;;29.10;17.67;;;3.60;99.90;;;;;;5199897;28;20202;-49
2022/11/28 01:02:04;;;;;;;33.33;16.20;;;3.60;99.90;;;;;;5238306;28;20206;-49
2022/11/28 01:04:35;;;;;;;37.17;17.83;;;3.60;99.90;;;;;;5236585;28;20685;-49
2022/11/28 01:07:05;;;;;;;28.40;15.43;;;3.50;99.90;;;;;;5227911;28;20774;-50
2022/11/28 01:09:36;;;;;;;29.50;15.50;;;3.50;99.90;;;;;;5244863;28;20206;-48
2022/11/28 01:12:06;;;;;;;30.33;17.33;;;3.50;99.90;;;;;;5240519;28;20188;-48
2022/11/28 01:14:37;;;;;;;30.87;16.20;;;3.50;99.90;;;;;;5209143;28;20226;-49
2022/11/28 01:17:08;;;;;;;33.23;16.97;;;3.50;99.90;;;;;;5219265;28;20182;-48
2022/11/28 01:19:38;;;;;;;33.53;18.13;;;3.50;99.90;;;;;;5241575;28;20243;-50
2022/11/28 01:22:09;;;;;;;32.07;16.90;;;3.50;99.90;;;;;;5233731;28;20213;-48
2022/11/28 01:24:39;;;;;;;28.70;16.20;;;3.40;99.90;;;;;;5230306;28;20186;-50
2022/11/28 01:27:10;;;;;;;28.20;17.30;;;3.40;99.90;;;;;;5232873;28;20731;-50
2022/11/28 01:29:41;;;;;;;26.20;16.57;;;3.40;99.90;;;;;;5235856;28;20286;-49
2022/11/28 01:32:11;;;;;;;26.07;15.93;;;3.40;99.90;;;;;;5230532;28;20523;-48
2022/11/28 01:34:42;;;;;;;28.70;17.37;;;3.40;99.90;;;;;;5242364;28;20604;-48
2022/11/28 01:37:13;;;;;;;28.63;15.80;;;3.40;99.90;;;;;;5245537;28;20282;-49
2022/11/28 01:39:43;;;;;;;24.60;15.67;;;3.40;99.90;;;;;;5224389;28;20697;-48
2022/11/28 01:42:18;;;;;;;29.70;16.00;;;3.40;99.90;;;;;;5242451;28;20194;-49
2022/11/28 01:44:49;;;;;;;26.40;15.40;;;3.40;99.90;;;;;;5240603;28;20169;-48
2022/11/28 01:47:26;;;;;;;26.70;14.23;;;3.40;99.90;;;;;;5237793;28;20468;-50
2022/11/28 01:49:57;;;;;;;22.43;14.03;;;3.30;99.90;;;;;;5225886;28;20214;-48
2022/11/28 01:52:28;;;;;;;30.40;14.80;;;3.30;99.90;;;;;;5217385;28;20516;-48
2022/11/28 01:55:00;;;;;;;29.70;14.10;;;3.40;99.90;;;;;;5240218;28;20178;-49
2022/11/28 01:57:31;;;;;;;22.90;13.80;;;3.40;99.90;;;;;;5240803;28;20178;-49
2022/11/28 02:00:17;;;;;;;24.87;14.53;;;3.30;99.90;;;;;;5243760;28;20466;-49
2022/11/28 02:02:57;;;;;;;23.10;12.80;;;3.30;99.90;;;;;;5238697;28;20479;-49
2022/11/28 02:05:28;;;;;;;25.00;14.90;;;3.40;99.90;;;;;;5208815;28;20786;-48
2022/11/28 02:07:58;;;;;;;21.83;13.90;;;3.30;99.90;;;;;;5220289;28;20471;-49
2022/11/28 02:10:46;;;;;;;23.60;14.40;;;3.40;99.90;;;;;;5237411;28;20188;-47
2022/11/28 02:13:34;;;;;;;26.13;14.17;;;3.40;99.90;;;;;;5234561;28;20183;-48
2022/11/28 02:16:24;;;;;;;23.23;14.00;;;3.40;99.90;;;;;;5230414;28;20434;-48
2022/11/28 02:18:55;;;;;;;20.70;14.03;;;3.40;99.90;;;;;;5223503;23;20867;-51
2022/11/28 02:21:40;;;;;;;19.20;14.10;;;3.50;99.90;;;;;;5227181;28;20427;-52
2022/11/28 02:24:52;;;;;;;24.80;14.27;;;3.40;99.90;;;;;;5218068;28;20230;-52
2022/11/28 02:27:29;;;;;;;19.83;12.83;;;3.40;99.90;;;;;;5213741;28;20461;-51
2022/11/28 02:30:19;;;;;;;25.93;14.20;;;3.40;99.90;;;;;;5221533;28;20437;-52
2022/11/28 02:33:12;;;;;;;19.53;12.47;;;3.40;99.90;;;;;;5219182;28;20413;-51
2022/11/28 02:35:48;;;;;;;18.13;12.60;;;3.40;99.90;;;;;;5216246;28;20426;-51
2022/11/28 02:38:53;;;;;;;22.23;14.17;;;3.40;99.90;;;;;;5222827;28;20545;-52
2022/11/28 02:41:35;;;;;;;30.07;14.00;;;3.40;99.90;;;;;;5215859;28;20527;-52
2022/11/28 02:44:16;;;;;;;26.90;15.73;;;3.40;99.90;;;;;;5215562;28;20790;-52
2022/11/28 02:47:11;;;;;;;21.03;13.50;;;3.40;99.90;;;;;;5216097;28;20457;-52
2022/11/28 02:50:00;;;;;;;24.90;13.10;;;3.40;99.90;;;;;;5240150;28;20460;-50
2022/11/28 02:52:56;;;;;;;26.90;14.27;;;3.40;99.90;;;;;;5215394;28;20421;-51
2022/11/28 02:55:27;;;;;;;16.83;11.43;;;3.40;99.90;;;;;;5219345;28;20464;-51
2022/11/28 02:57:57;;;;;;;28.13;13.13;;;3.30;99.90;;;;;;5221688;28;20466;-51
2022/11/28 03:00:33;;;;;;;26.00;15.33;;;3.30;99.90;;;;;;5218080;28;20241;-51
2022/11/28 03:03:09;;;;;;;28.53;14.27;;;3.30;99.90;;;;;;5226900;28;20253;-51
2022/11/28 03:05:51;;;;;;;35.83;15.60;;;3.30;99.90;;;;;;5223103;28;20417;-52
2022/11/28 03:08:36;;;;;;;23.90;13.20;;;3.30;99.90;;;;;;5220087;28;20535;-53
2022/11/28 03:11:48;;;;;;;28.63;14.87;;;3.20;99.90;;;;;;5221199;28;20433;-51
2022/11/28 03:14:28;;;;;;;22.37;15.00;;;3.20;99.90;;;;;;5222073;28;21026;-51
2022/11/28 03:17:13;;;;;;;28.03;15.63;;;3.30;99.90;;;;;;5227778;28;20429;-53
2022/11/28 03:20:10;;;;;;;30.73;16.90;;;3.20;99.90;;;;;;5226979;28;20972;-51
2022/11/28 03:22:44;;;;;;;33.60;17.00;;;3.20;99.90;;;;;;5219884;28;20464;-51
2022/11/28 03:25:44;;;;;;;26.63;15.00;;;3.20;99.90;;;;;;5226640;28;20782;-52
2022/11/28 03:28:35;;;;;;;37.43;17.30;;;3.10;99.90;;;;;;5204593;28;20560;-51
2022/11/28 03:31:35;;;;;;;33.97;17.23;;;3.20;99.90;;;;;;5213993;28;20430;-52
2022/11/28 03:34:10;;;;;;;27.20;16.23;;;3.20;99.90;;;;;;5222717;28;20937;-53
2022/11/28 03:37:06;;;;;;;29.17;17.37;;;3.30;99.90;;;;;;5225776;28;20782;-53
2022/11/28 03:39:40;;;;;;;31.17;17.33;;;3.20;99.90;;;;;;5206285;28;20454;-51
2022/11/28 03:42:19;;;;;;;32.10;17.67;;;3.20;99.90;;;;;;5224333;28;20424;-52
2022/11/28 03:44:59;;;;;;;29.83;16.87;;;3.20;99.90;;;;;;5219834;28;20418;-51
2022/11/28 03:47:37;;;;;;;27.13;16.47;;;3.20;99.90;;;;;;5226266;28;20821;-52
2022/11/28 03:50:12;;;;;;;32.37;18.23;;;3.20;99.90;;;;;;5215207;28;20483;-52
2022/11/28 03:52:53;;;;;;;36.23;17.00;;;3.20;99.90;;;;;;5226403;28;20437;-51
2022/11/28 03:55:39;;;;;;;31.33;16.97;;;3.20;99.90;;;;;;5222213;28;20448;-51
2022/11/28 03:58:27;;;;;;;38.93;18.17;;;3.30;99.90;;;;;;5222585;28;20500;-53
2022/11/28 04:01:19;;;;;;;35.90;18.43;;;3.20;99.90;;;;;;5222664;28;20457;-51
2022/11/28 04:03:52;;;;;;;31.63;16.20;;;3.20;99.90;;;;;;5212433;28;20434;-52
2022/11/28 04:06:36;;;;;;;34.40;17.07;;;3.20;99.90;;;;;;5222662;28;20422;-49
2022/11/28 04:09:13;;;;;;;32.50;18.00;;;3.30;99.90;;;;;;5226091;28;20484;-51
2022/11/28 04:11:52;;;;;;;30.50;18.10;;;3.30;99.90;;;;;;5225501;28;20429;-51
2022/11/28 04:14:29;;;;;;;36.97;16.60;;;3.20;99.90;;;;;;5218982;28;20516;-51
2022/11/28 04:17:13;;;;;;;31.23;16.27;;;3.30;99.90;;;;;;5215296;28;20492;-52
2022/11/28 04:19:52;;;;;;;28.07;18.20;;;3.20;99.90;;;;;;5216220;28;20480;-52
2022/11/28 04:22:29;;;;;;;36.30;18.30;;;3.20;99.90;;;;;;5221340;28;20430;-52
2022/11/28 04:25:08;;;;;;;33.10;17.50;;;3.20;99.90;;;;;;5222212;28;20440;-51
2022/11/28 04:27:43;;;;;;;33.00;18.20;;;3.20;99.90;;;;;;5218218;28;20512;-51
2022/11/28 04:30:14;;;;;;;28.30;18.03;;;3.20;99.90;;;;;;5226485;28;20430;-52
2022/11/28 04:32:56;;;;;;;39.80;18.83;;;3.20;99.90;;;;;;5220562;28;20455;-52
2022/11/28 04:35:36;;;;;;;30.40;16.60;;;3.10;99.90;;;;;;5223094;28;21062;-51
2022/11/28 04:38:09;;;;;;;30.90;16.60;;;3.10;99.90;;;;;;5219199;28;20839;-51
2022/11/28 04:40:49;;;;;;;31.90;16.67;;;3.10;99.90;;;;;;5225871;28;20532;-51
2022/11/28 04:43:33;;;;;;;32.40;16.70;;;3.10;99.90;;;;;;5213437;28;20440;-51
2022/11/28 04:46:18;;;;;;;31.63;16.80;;;3.00;99.90;;;;;;5222291;28;20438;-51
2022/11/28 04:48:49;;;;;;;30.53;18.47;;;3.00;99.90;;;;;;5222745;28;21080;-51
2022/11/28 04:51:43;;;;;;;40.00;19.37;;;3.00;99.90;;;;;;5207531;28;20509;-51
2022/11/28 04:54:23;;;;;;;43.00;18.00;;;3.10;99.90;;;;;;5209800;28;20585;-52
2022/11/28 04:57:01;;;;;;;33.73;17.83;;;3.10;99.90;;;;;;5227327;28;20452;-52
2022/11/28 04:59:32;;;;;;;28.60;16.43;;;3.10;99.90;;;;;;5225135;28;20457;-52
2022/11/28 05:02:04;;;;;;;29.80;15.20;;;3.10;99.90;;;;;;5224903;28;20437;-52
2022/11/28 05:04:36;;;;;;;28.67;16.07;;;3.20;99.90;;;;;;5221337;28;20661;-52
2022/11/28 05:07:08;;;;;;;25.90;16.33;;;3.20;99.90;;;;;;5221453;28;20476;-52
2022/11/28 05:09:38;;;;;;;28.93;16.67;;;3.20;99.90;;;;;;5212280;28;20457;-51
2022/11/28 05:12:09;;;;;;;26.80;15.30;;;3.20;99.90;;;;;;5221103;28;21246;-52
2022/11/28 05:14:39;;;;;;;31.93;16.43;;;3.30;99.90;;;;;;5217785;28;20265;-51
2022/11/28 05:17:12;;;;;;;27.77;16.47;;;3.30;99.90;;;;;;5218950;28;20191;-52
2022/11/28 05:19:42;;;;;;;25.70;15.87;;;3.30;99.90;;;;;;5214676;28;20744;-51
2022/11/28 05:22:13;;;;;;;27.40;15.90;;;3.30;99.90;;;;;;5219083;28;20550;-52
2022/11/28 05:24:43;;;;;;;31.13;17.03;;;3.40;99.90;;;;;;5223772;28;20270;-51
2022/11/28 05:27:14;;;;;;;31.53;15.87;;;3.40;99.90;;;;;;5225086;28;20607;-53
2022/11/28 05:29:45;;;;;;;32.50;16.13;;;3.40;99.90;;;;;;5214784;28;20230;-52
2022/11/28 05:32:16;;;;;;;31.70;16.60;;;3.40;99.90;;;;;;5211187;28;20183;-52
2022/11/28 05:34:46;;;;;;;35.67;16.00;;;3.40;99.90;;;;;;5219364;28;20440;-53
2022/11/28 05:37:17;;;;;;;30.17;15.43;;;3.40;99.90;;;;;;5222033;28;20182;-52
2022/11/28 05:39:48;;;;;;;34.20;16.93;;;3.40;99.90;;;;;;5213788;28;20219;-53
2022/11/28 05:42:19;;;;;;;27.73;15.23;;;3.40;99.90;;;;;;5225465;28;20720;-51
2022/11/28 05:44:49;;;;;;;32.67;16.23;;;3.40;99.90;;;;;;5223890;28;20254;-53
2022/11/28 05:47:22;;;;;;;27.43;16.00;;;3.50;99.90;;;;;;5212014;28;21036;-51
2022/11/28 05:49:53;;;;;;;24.47;15.33;;;3.50;99.90;;;;;;5208529;28;20683;-53
2022/11/28 05:52:23;;;;;;;36.50;17.97;;;3.50;99.90;;;;;;5217548;28;20434;-53
2022/11/28 05:54:54;;;;;;;27.93;16.47;;;3.50;99.90;;;;;;5215709;28;20612;-52
2022/11/28 05:57:25;;;;;;;38.97;16.40;;;3.40;99.90;;;;;;5218746;28;20303;-54
2022/11/28 05:59:56;;;;;;;31.30;15.87;;;3.50;99.90;;;;;;5221259;28;20222;-51
2022/11/28 06:02:26;;;;;;;27.87;15.50;;;3.50;99.90;;;;;;5203794;28;20274;-53
2022/11/28 06:04:57;;;;;;;38.80;17.93;;;3.40;99.90;;;;;;5220769;28;20536;-51
2022/11/28 06:07:28;;;;;;;30.17;17.03;;;3.40;99.90;;;;;;5212849;28;20611;-52
2022/11/28 06:09:58;;;;;;;35.13;18.10;;;3.40;99.90;;;;;;5218339;28;20218;-52
2022/11/28 06:12:29;;;;;;;47.80;17.63;;;3.40;99.90;;;;;;5218941;28;20562;-52
2022/11/28 06:14:59;;;;;;;30.40;16.70;;;3.40;99.90;;;;;;5221495;28;20266;-52
2022/11/28 06:17:30;;;;;;;28.33;15.90;;;3.40;99.90;;;;;;5222799;28;20183;-52
2022/11/28 06:20:01;;;;;;;30.83;16.63;;;3.40;99.90;;;;;;5221682;28;20217;-52
2022/11/28 06:22:32;;;;;;;36.03;17.57;;;3.40;99.90;;;;;;5216269;28;20237;-51
2022/11/28 06:25:02;;;;;;;27.90;17.50;;;3.40;99.90;;;;;;5217404;28;20651;-52
2022/11/28 06:27:34;;;;;;;41.90;19.87;;;3.30;99.90;;;;;;5221798;28;20282;-51
2022/11/28 06:30:06;;;;;;;37.73;19.27;;;3.30;99.90;;;;;;5217977;28;20299;-50
2022/11/28 06:32:36;;;;;;;37.50;19.43;;;3.20;99.90;;;;;;5218374;28;20456;-53
2022/11/28 06:35:07;;;;;;;32.03;18.50;;;3.20;99.90;;;;;;5218213;28;20448;-52
2022/11/28 06:37:38;;;;;;;42.33;21.50;;;3.20;99.90;;;;;;5210635;28;20555;-51
2022/11/28 06:40:09;;;;;;;33.63;18.90;;;3.20;99.90;;;;;;5214124;28;20216;-51
2022/11/28 06:42:39;;;;;;;38.90;20.30;;;3.20;99.90;;;;;;5218600;28;20225;-52
2022/11/28 06:45:10;;;;;;;38.77;19.77;;;3.20;99.90;;;;;;5217473;28;21043;-50
2022/11/28 06:47:41;;;;;;;40.87;18.77;;;3.20;99.90;;;;;;5220301;28;20223;-51
2022/11/28 06:50:12;;;;;;;43.17;21.30;;;3.20;99.90;;;;;;5217986;28;20225;-51
2022/11/28 06:52:42;;;;;;;44.33;21.50;;;3.20;99.90;;;;;;5221269;28;20551;-52
2022/11/28 06:55:13;;;;;;;46.50;20.77;;;3.10;99.90;;;;;;5213601;28;20199;-53
2022/11/28 06:57:44;;;;;;;43.17;21.03;;;3.20;99.90;;;;;;5220316;28;20195;-50
2022/11/28 07:00:15;;;;;;;42.63;20.40;;;3.10;99.90;;;;;;5218882;28;20675;-52
2022/11/28 07:02:46;;;;;;;51.63;24.07;;;3.10;99.90;;;;;;5217615;28;20195;-53
2022/11/28 07:05:18;;;;;;;35.33;19.93;;;3.10;99.90;;;;;;5211538;28;20445;-53
2022/11/28 07:07:51;;;;;;;43.50;20.80;;;3.10;99.90;;;;;;5200956;28;20206;-52
2022/11/28 07:10:22;;;;;;;48.50;22.37;;;3.10;99.90;;;;;;5222708;28;20441;-50
2022/11/28 07:12:58;;;;;;;43.50;20.10;;;3.10;99.90;;;;;;5222340;28;20437;-53
2022/11/28 07:15:28;;;;;;;47.80;21.00;;;3.10;99.90;;;;;;5225051;28;20437;-51
2022/11/28 07:17:59;;;;;;;36.73;19.70;;;3.00;99.90;;;;;;5223970;28;20452;-53
2022/11/28 07:20:30;;;;;;;37.80;20.10;;;3.00;99.90;;;;;;5224759;28;20285;-50
2022/11/28 07:23:00;;;;;;;48.23;22.43;;;3.10;99.90;;;;;;5223912;28;20544;-50
2022/11/28 07:25:32;;;;;;;47.57;23.33;;;3.00;99.90;;;;;;5224234;28;20574;-52
2022/11/28 07:28:03;;;;;;;40.10;21.70;;;3.00;99.90;;;;;;5222513;28;20465;-50
2022/11/28 07:30:33;;;;;;;45.77;22.57;;;3.00;99.90;;;;;;5210730;28;20440;-50
2022/11/28 07:33:04;;;;;;;43.53;21.70;;;3.00;99.90;;;;;;5208912;28;20201;-50
2022/11/28 07:35:35;;;;;;;47.40;22.80;;;3.00;99.90;;;;;;5227244;28;20247;-52
2022/11/28 07:38:05;;;;;;;45.60;21.70;;;3.00;99.90;;;;;;5228546;28;20223;-51
2022/11/28 07:40:36;;;;;;;42.87;21.80;;;3.00;99.90;;;;;;5225522;28;20182;-51
2022/11/28 07:43:07;;;;;;;44.33;21.27;;;3.10;99.90;;;;;;5222237;28;20199;-53
2022/11/28 07:45:41;;;;;;;45.23;21.30;;;3.10;99.90;;;;;;5191448;28;20193;-50
2022/11/28 07:48:11;;;;;;;41.23;21.50;;;3.20;99.90;;;;;;5224924;28;20215;-50
2022/11/28 07:50:42;;;;;;;32.23;18.30;;;3.20;99.90;;;;;;5228544;28;20444;-52
2022/11/28 07:53:13;;;;;;;38.13;21.27;;;3.20;99.90;;;;;;5221146;28;20225;-51
2022/11/28 07:55:44;;;;;;;43.70;22.63;;;3.30;99.90;;;;;;5224077;28;20266;-51
2022/11/28 07:58:14;;;;;;;35.23;19.10;;;3.30;99.90;;;;;;5220540;28;20758;-54
2022/11/28 08:00:45;;;;;;;37.23;17.80;;;3.30;99.90;;;;;;5220119;28;20245;-50
2022/11/28 08:03:16;;;;;;;33.57;18.53;;;3.30;99.90;;;;;;5221687;28;20262;-52
2022/11/28 08:05:48;;;;;;;34.40;18.03;;;3.30;99.90;;;;;;5205246;28;20187;-50
2022/11/28 08:08:19;;;;;;;27.47;17.00;;;3.40;99.90;;;;;;5224563;28;20276;-51
2022/11/28 08:10:50;;;;;;;32.57;18.17;;;3.40;99.90;;;;;;5219178;28;21019;-49
2022/11/28 08:13:20;;;;;;;34.30;18.63;;;3.40;99.90;;;;;;5223335;28;20489;-50
2022/11/28 08:15:51;;;;;;;44.90;20.67;;;3.40;99.90;;;;;;5221857;28;20270;-50
2022/11/28 08:18:22;;;;;;;36.90;18.67;;;3.50;99.90;;;;;;5230851;22;20237;-52
2022/11/28 08:21:04;;;;;;;34.50;17.17;;;3.40;99.90;;;;;;5213848;28;20221;-46
2022/11/28 08:23:35;;;;;;;32.10;18.07;;;3.50;99.90;;;;;;5230072;28;20432;-52
2022/11/28 08:26:08;;;;;;;32.80;17.90;;;3.60;99.90;;;;;;5225228;28;20451;-50
2022/11/28 08:28:39;;;;;;;37.73;18.60;;;3.60;99.90;;;;;;5245376;28;21110;-47
2022/11/28 08:31:16;;;;;;;36.30;18.10;;;3.60;99.90;;;;;;5240506;28;20478;-51
2022/11/28 08:33:49;;;;;;;59.50;20.37;;;3.60;99.90;;;;;;5214294;28;20439;-49
2022/11/28 08:36:21;;;;;;;40.03;19.57;;;3.60;99.90;;;;;;5209001;28;20445;-49
2022/11/28 08:38:53;;;;;;;43.83;20.80;;;3.60;99.90;;;;;;5235447;28;20461;-49
2022/11/28 08:41:24;;;;;;;34.13;17.87;;;3.80;99.90;;;;;;5240541;28;20948;-47
2022/11/28 08:43:55;;;;;;;34.03;18.00;;;3.70;99.90;;;;;;5224481;28;20437;-49
2022/11/28 08:46:26;;;;;;;43.20;20.50;;;3.90;99.90;;;;;;5225544;28;20448;-50
2022/11/28 08:49:00;;;;;;;39.00;18.70;;;3.80;99.90;;;;;;5223922;28;20479;-46
2022/11/28 08:51:31;;;;;;;36.93;18.17;;;3.70;99.90;;;;;;5219296;28;20436;-48
2022/11/28 08:54:02;;;;;;;41.50;19.70;;;3.80;99.90;;;;;;5219995;28;21047;-48
2022/11/28 08:56:33;;;;;;;39.13;20.00;;;3.80;99.90;;;;;;5220576;28;20435;-46
2022/11/28 08:59:05;;;;;;;34.57;18.73;;;3.80;99.90;;;;;;5243316;28;20505;-48
2022/11/28 09:01:38;;;;;;;35.10;18.30;;;3.80;99.90;;;;;;5223082;28;20487;-51
2022/11/28 09:04:09;;;;;;;38.83;19.40;;;3.90;99.90;;;;;;5224512;28;20429;-47
2022/11/28 09:06:40;;;;;;;45.47;20.23;;;3.90;99.90;;;;;;5228004;28;20444;-50
2022/11/28 09:09:11;;;;;;;42.53;18.23;;;4.00;99.90;;;;;;5238501;28;20325;-46
2022/11/28 09:11:42;;;;;;;36.17;17.40;;;4.00;99.90;;;;;;5217610;28;20520;-48
2022/11/28 09:14:13;;;;;;;43.53;18.67;;;4.10;99.90;;;;;;5239013;28;20432;-50
2022/11/28 09:16:44;;;;;;;31.37;17.20;;;4.20;99.90;;;;;;5217312;28;20793;-52
2022/11/28 09:19:14;;;;;;;41.17;19.87;;;4.10;99.90;;;;;;5239347;28;20222;-46
2022/11/28 09:21:45;;;;;;;37.37;17.80;;;4.10;99.90;;;;;;5227524;28;20415;-48
2022/11/28 09:24:16;;;;;;;37.20;18.00;;;4.10;99.90;;;;;;5226936;28;20307;-47
2022/11/28 09:26:47;;;;;;;32.17;17.37;;;4.20;99.90;;;;;;5223821;28;20178;-48
2022/11/28 09:29:17;;;;;;;33.37;17.67;;;4.30;99.90;;;;;;5243084;28;20452;-49
2022/11/28 09:31:48;;;;;;;35.70;16.70;;;4.30;99.90;;;;;;5222947;28;20182;-50
2022/11/28 09:34:20;;;;;;;34.17;17.07;;;4.40;99.90;;;;;;5240336;28;20174;-48
2022/11/28 09:36:51;;;;;;;35.97;17.80;;;4.30;99.90;;;;;;5226690;28;20218;-50
2022/11/28 09:39:21;;;;;;;36.10;17.80;;;4.30;99.90;;;;;;5224767;28;20484;-49
2022/11/28 09:42:07;;;;;;;42.50;19.40;;;4.30;99.90;;;;;;5222354;28;20228;-47
2022/11/28 09:44:40;;;;;;;31.93;17.63;;;4.30;99.90;;;;;;5221382;28;20183;-46
2022/11/28 09:47:25;;;;;;;32.40;18.10;;;4.40;99.90;;;;;;5235842;28;20491;-47
2022/11/28 09:50:04;;;;;;;34.60;18.20;;;4.40;99.90;;;;;;5223334;28;20453;-48
2022/11/28 09:53:00;;;;;;;35.53;18.27;;;4.50;99.90;;;;;;5222651;28;20454;-47
2022/11/28 09:55:43;;;;;;;40.53;19.53;;;4.50;99.90;;;;;;5224627;28;20436;-49
2022/11/28 09:58:23;;;;;;;30.60;18.50;;;4.60;99.90;;;;;;5240769;28;20594;-50
2022/11/28 10:01:23;;;;;;;32.13;17.40;;;4.50;99.90;;;;;;5244760;28;20464;-47
2022/11/28 10:04:12;;;;;;;44.10;19.30;;;4.50;99.90;;;;;;5219082;28;20448;-51
2022/11/28 10:06:52;;;;;;;36.47;17.47;;;4.50;99.90;;;;;;5223883;28;20436;-47
2022/11/28 10:09:40;;;;;;;41.13;18.53;;;4.50;99.90;;;;;;5223541;28;20557;-49
2022/11/28 10:12:37;;;;;;;34.50;18.00;;;4.70;99.90;;;;;;5217942;28;20444;-48
2022/11/28 10:15:19;;;;;;;36.30;18.83;;;4.60;99.90;;;;;;5236817;28;20433;-46
2022/11/28 10:18:06;;;;;;;36.40;18.07;;;4.70;99.90;;;;;;5219494;28;20440;-48
2022/11/28 10:20:40;;;;;;;40.73;18.67;;;4.70;99.90;;;;;;5242197;28;20479;-51
2022/11/28 10:23:30;;;;;;;44.43;21.70;;;4.80;99.90;;;;;;5222741;28;20449;-46
2022/11/28 10:26:07;;;;;;;50.70;21.00;;;4.80;99.90;;;;;;5216828;28;20444;-50
2022/11/28 10:28:42;;;;;;;37.43;19.37;;;4.90;99.90;;;;;;5240478;28;20575;-47
2022/11/28 10:31:29;;;;;;;44.30;17.70;;;4.90;99.90;;;;;;5225324;28;20452;-50
2022/11/28 10:34:00;;;;;;;34.90;18.67;;;4.90;99.90;;;;;;5225237;28;20437;-48
2022/11/28 10:36:43;;;;;;;43.50;19.40;;;5.00;99.90;;;;;;5218140;28;20430;-48
2022/11/28 10:39:14;;;;;;;39.87;19.03;;;5.00;99.90;;;;;;5237645;28;20207;-47
2022/11/28 10:42:10;;;;;;;33.57;18.10;;;5.00;99.90;;;;;;5221608;28;20524;-47
2022/11/28 10:45:14;;;;;;;45.13;17.73;;;5.00;99.90;;;;;;5236439;28;20325;-46
2022/11/28 10:48:14;;;;;;;38.50;18.80;;;5.00;99.90;;;;;;5237691;28;20465;-47
2022/11/28 10:50:57;;;;;;;37.70;19.17;;;5.00;99.90;;;;;;5218295;28;20804;-50
2022/11/28 10:53:53;;;;;;;37.93;18.50;;;5.00;99.90;;;;;;5226065;28;20432;-47
2022/11/28 10:56:50;;;;;;;40.00;17.53;;;5.00;99.90;;;;;;5237736;28;20433;-47
2022/11/28 10:59:46;;;;;;;36.50;18.60;;;5.00;99.90;;;;;;5229617;28;20457;-48
2022/11/28 11:02:29;;;;;;;35.23;17.53;;;5.10;99.90;;;;;;5228407;28;20527;-47
2022/11/28 11:04:59;;;;;;;36.13;18.37;;;5.20;99.90;;;;;;5225954;28;20528;-48
2022/11/28 11:07:32;;;;;;;38.77;17.93;;;5.10;99.90;;;;;;5245777;28;20464;-50
2022/11/28 11:10:29;;;;;;;37.17;18.43;;;5.10;99.90;;;;;;5217702;28;20206;-47
2022/11/28 11:13:13;;;;;;;38.10;17.43;;;5.10;99.90;;;;;;5235648;28;20445;-46
2022/11/28 11:15:45;;;;;;;35.47;17.70;;;5.10;99.90;;;;;;5222178;28;20923;-49
2022/11/28 11:18:29;;;;;;;45.33;18.47;;;5.00;99.90;;;;;;5227421;28;20457;-49
2022/11/28 11:21:13;;;;;;;28.03;16.73;;;5.00;99.90;;;;;;5225425;28;21118;-47
2022/11/28 11:23:45;;;;;;;39.93;17.60;;;5.10;99.90;;;;;;5221918;28;21954;-50
2022/11/28 11:26:30;;;;;;;33.07;17.07;;;5.10;99.90;;;;;;5209845;28;20445;-51
2022/11/28 11:29:01;;;;;;;34.77;16.97;;;5.10;99.90;;;;;;5225699;28;20942;-48
2022/11/28 11:31:43;;;;;;;34.73;17.50;;;5.20;99.90;;;;;;5235026;28;20792;-50
2022/11/28 11:34:20;;;;;;;39.73;19.20;;;5.30;99.90;;;;;;5221541;28;20185;-51
2022/11/28 11:37:10;;;;;;;31.70;17.13;;;5.40;99.90;;;;;;5242420;28;20440;-48
2022/11/28 11:39:49;;;;;;;36.63;16.77;;;5.50;99.90;;;;;;5245197;28;20453;-47
2022/11/28 11:42:25;;;;;;;38.97;16.70;;;5.40;99.90;;;;;;5226704;28;20545;-49
2022/11/28 11:45:16;;;;;;;27.80;16.00;;;5.50;99.90;;;;;;5224192;28;20491;-48
2022/11/28 11:47:47;;;;;;;27.27;15.70;;;5.60;99.90;;;;;;5230633;28;21011;-46
2022/11/28 11:50:21;;;;;;;40.63;18.70;;;5.60;99.90;;;;;;5227635;28;20490;-49
2022/11/28 11:53:09;;;;;;;27.30;16.30;;;5.60;99.90;;;;;;5227527;28;20194;-46
2022/11/28 11:55:50;;;;;;;29.33;16.07;;;5.60;99.90;;;;;;5243967;28;20521;-47
2022/11/28 11:58:45;;;;;;;31.30;15.87;;;5.70;99.90;;;;;;5229103;28;20442;-50
2022/11/28 12:01:18;;;;;;;35.10;16.43;;;5.80;99.90;;;;;;5209793;28;20534;-47
2022/11/28 12:03:57;;;;;;;31.90;16.40;;;5.80;99.90;;;;;;5228322;28;20957;-47
2022/11/28 12:06:32;;;;;;;29.10;14.60;;;5.90;99.90;;;;;;5211585;28;20534;-47
2022/11/28 12:09:47;;;;;;;36.67;16.13;;;5.90;99.90;;;;;;5228324;28;20471;-51
2022/11/28 12:12:23;;;;;;;29.70;15.83;;;6.00;99.90;;;;;;5198561;28;20487;-52
2022/11/28 12:14:54;;;;;;;34.37;16.60;;;6.00;99.90;;;;;;5224895;28;20426;-46
2022/11/28 12:17:24;;;;;;;30.47;14.67;;;6.00;99.90;;;;;;5226029;28;20443;-48
2022/11/28 12:20:25;;;;;;;31.10;15.43;;;6.00;99.90;;;;;;5243258;28;20467;-49
2022/11/28 12:23:10;;;;;;;28.03;14.67;;;5.90;99.90;;;;;;5227138;28;20184;-46
2022/11/28 12:25:47;;;;;;;27.30;14.93;;;5.90;99.90;;;;;;5226338;28;20512;-48
2022/11/28 12:28:41;;;;;;;24.50;14.40;;;5.90;99.90;;;;;;5227294;28;20839;-46
2022/11/28 12:31:42;;;;;;;30.47;14.77;;;5.90;99.90;;;;;;5218917;28;20443;-48
2022/11/28 12:34:25;;;;;;;28.40;14.40;;;5.90;99.90;;;;;;5226882;28;20433;-49
2022/11/28 12:37:25;;;;;;;31.43;15.20;;;5.90;99.90;;;;;;5240691;28;20446;-51
2022/11/28 12:39:59;;;;;;;29.10;15.27;;;5.90;99.90;;;;;;5240446;28;20538;-49
2022/11/28 12:43:04;;;;;;;27.83;14.83;;;5.70;99.90;;;;;;5225081;28;20439;-48
2022/11/28 12:45:37;;;;;;;28.97;14.10;;;5.70;99.90;;;;;;5223139;28;20440;-50
2022/11/28 12:48:14;;;;;;;34.07;16.17;;;5.70;99.90;;;;;;5214933;28;20471;-50
2022/11/28 12:50:51;;;;;;;31.77;15.70;;;5.70;99.90;;;;;;5217139;28;20436;-47
2022/11/28 12:54:16;;;;;;;39.00;15.90;;;5.70;99.90;;;;;;5223932;28;20434;-48
2022/11/28 12:57:04;;;;;;;25.03;14.87;;;5.80;99.90;;;;;;5157694;28;20457;-47
2022/11/28 13:00:03;;;;;;;31.17;16.60;;;5.70;99.90;;;;;;5224599;28;20531;-50
2022/11/28 13:02:55;;;;;;;38.40;17.40;;;5.70;99.90;;;;;;5188295;28;20444;-48
2022/11/28 13:05:49;;;;;;;34.90;18.30;;;5.60;99.90;;;;;;5221807;28;20436;-52
2022/11/28 13:08:27;;;;;;;38.40;17.47;;;5.60;99.90;;;;;;5243369;28;20843;-48
2022/11/28 13:11:19;;;;;;;51.70;19.53;;;5.50;99.90;;;;;;5222889;28;20456;-48
2022/11/28 13:14:03;;;;;;;39.23;19.53;;;5.40;99.90;;;;;;5227665;28;20422;-48
2022/11/28 13:16:41;;;;;;;40.13;20.43;;;5.40;99.90;;;;;;5238725;28;20508;-48
2022/11/28 13:19:23;;;;;;;39.30;21.00;;;5.30;99.90;;;;;;5208916;28;20478;-49
2022/11/28 13:22:09;;;;;;;58.53;21.37;;;5.30;99.90;;;;;;5219008;28;20437;-48
2022/11/28 13:25:09;;;;;;;39.97;21.00;;;5.30;99.90;;;;;;5220503;28;20594;-47
2022/11/28 13:27:58;;;;;;;50.50;21.67;;;5.20;99.90;;;;;;5241635;28;20950;-49